createdAt,value
2023-02-05T00:01:48.024Z,55.69
2023-02-05T00:06:50.806Z,55.80
2023-02-05T00:11:53.554Z,55.74
2023-02-05T00:16:57.713Z,55.84
2023-02-05T00:27:18.544Z,55.97
2023-02-05T00:32:22.700Z,56.07
2023-02-05T00:37:25.823Z,56.14
2023-02-05T00:42:29.208Z,56.61
2023-02-05T00:47:33.347Z,56.18
2023-02-05T00:52:36.179Z,56.20
2023-02-05T00:57:38.986Z,56.21
2023-02-05T01:02:43.275Z,56.19
2023-02-05T01:07:46.209Z,56.26
2023-02-05T01:12:49.898Z,56.38
2023-02-05T01:17:54.230Z,56.30
2023-02-05T01:22:57.496Z,56.39
2023-02-05T01:28:00.755Z,56.33
2023-02-05T01:33:05.473Z,56.46
2023-02-05T01:38:08.237Z,56.65
2023-02-05T01:43:14.373Z,56.68
2023-02-05T01:48:21.488Z,56.58
2023-02-05T01:53:27.014Z,56.74
2023-02-05T01:58:33.585Z,56.69
2023-02-05T02:03:40.426Z,56.68
2023-02-05T02:08:43.341Z,56.73
2023-02-05T02:13:48.480Z,56.66
2023-02-05T02:18:54.465Z,56.69
2023-02-05T02:24:22.921Z,56.80
2023-02-05T02:29:36.755Z,56.66
2023-02-05T02:34:46.247Z,56.80
2023-02-05T02:39:57.846Z,56.73
2023-02-05T02:45:05.609Z,56.79
2023-02-05T02:50:14.234Z,56.67
2023-02-05T02:55:20.638Z,56.79
2023-02-05T03:00:29.563Z,56.90
2023-02-05T03:05:35.393Z,56.81
2023-02-05T03:10:44.611Z,56.91
2023-02-05T03:15:51.824Z,56.83
2023-02-05T03:21:02.387Z,56.88
2023-02-05T03:26:05.591Z,56.93
2023-02-05T03:31:24.300Z,56.86
2023-02-05T03:36:33.772Z,56.94
2023-02-05T03:41:59.063Z,56.74
2023-02-05T03:47:19.374Z,56.73
2023-02-05T03:52:28.427Z,56.74
2023-02-05T03:57:37.141Z,56.82
2023-02-05T04:02:41.744Z,56.76
2023-02-05T04:07:47.329Z,56.98
2023-02-05T04:12:50.182Z,57.07
2023-02-05T04:17:57.798Z,57.22
2023-02-05T04:23:02.634Z,57.41
2023-02-05T04:28:08.305Z,57.63
2023-02-05T04:33:13.347Z,57.71
2023-02-05T04:38:16.623Z,57.69
2023-02-05T04:43:19.760Z,58.08
2023-02-05T04:48:23.960Z,58.10
2023-02-05T04:53:27.190Z,58.33
2023-02-05T04:58:29.987Z,58.54
2023-02-05T05:03:34.518Z,58.63
2023-02-05T05:08:37.715Z,58.81
2023-02-05T05:13:40.645Z,59.12
2023-02-05T05:18:44.829Z,59.27
2023-02-05T05:23:47.646Z,59.42
2023-02-05T05:28:54.309Z,59.67
2023-02-05T05:33:58.556Z,60.03
2023-02-05T05:39:21.864Z,60.31
2023-02-05T05:44:24.619Z,60.81
2023-02-05T05:49:29.476Z,60.93
2023-02-05T05:54:32.414Z,61.17
2023-02-05T05:59:35.328Z,61.36
2023-02-05T06:04:39.507Z,61.33
2023-02-05T06:09:42.373Z,61.47
2023-02-05T06:14:45.239Z,61.69
2023-02-05T06:19:49.330Z,61.94
2023-02-05T06:24:52.094Z,61.59
2023-02-05T06:29:54.897Z,61.56
2023-02-05T06:34:59.052Z,61.40
2023-02-05T06:40:01.870Z,61.38
2023-02-05T06:45:05.082Z,61.40
2023-02-05T06:50:10.070Z,61.44
2023-02-05T06:55:12.914Z,61.34
2023-02-05T07:00:16.844Z,61.44
2023-02-05T07:05:21.097Z,61.52
2023-02-05T07:10:23.930Z,61.59
2023-02-05T07:15:27.025Z,61.53
2023-02-05T07:20:31.331Z,61.68
2023-02-05T07:25:37.734Z,61.62
2023-02-05T07:30:40.509Z,61.64
2023-02-05T07:35:44.732Z,62.04
2023-02-05T07:40:47.584Z,61.86
2023-02-05T07:45:57.728Z,61.83
2023-02-05T07:51:02.316Z,61.92
2023-02-05T07:56:05.869Z,61.87
2023-02-05T08:01:09.529Z,62.07
2023-02-05T08:06:16.970Z,61.63
2023-02-05T08:11:20.643Z,61.00
2023-02-05T08:16:23.460Z,42.79
2023-02-05T08:21:27.582Z,45.56
2023-02-05T08:26:30.322Z,46.30
2023-02-05T08:31:33.383Z,47.49
2023-02-05T08:36:37.550Z,48.49
2023-02-05T08:41:40.411Z,49.30
2023-02-05T08:46:49.903Z,50.47
2023-02-05T08:51:54.955Z,51.51
2023-02-05T08:56:57.816Z,52.17
2023-02-05T09:02:00.700Z,52.54
2023-02-05T09:07:04.890Z,52.55
2023-02-05T09:12:08.108Z,52.80
2023-02-05T09:17:14.244Z,52.97
2023-02-05T09:22:18.492Z,53.37
2023-02-05T09:27:21.474Z,53.58
2023-02-05T09:32:24.339Z,53.82
2023-02-05T09:37:28.429Z,54.04
2023-02-05T09:42:39.694Z,54.03
2023-02-05T09:47:51.335Z,54.45
2023-02-05T09:53:01.106Z,54.79
2023-02-05T09:58:09.546Z,54.78
2023-02-05T10:03:22.866Z,54.96
2023-02-05T10:08:37.441Z,55.11
2023-02-05T10:13:44.204Z,55.23
2023-02-05T10:19:00.552Z,55.12
2023-02-05T10:24:22.369Z,55.38
2023-02-05T10:29:37.766Z,55.34
2023-02-05T10:34:53.659Z,55.60
2023-02-05T10:39:59.015Z,55.52
2023-02-05T10:45:07.765Z,55.72
2023-02-05T10:50:19.455Z,55.85
2023-02-05T10:55:23.736Z,55.57
2023-02-05T11:00:26.572Z,55.68
2023-02-05T11:05:37.040Z,55.73
2023-02-05T11:10:41.200Z,55.56
2023-02-05T11:15:56.405Z,55.84
2023-02-05T11:21:01.815Z,55.86
2023-02-05T11:26:11.783Z,55.70
2023-02-05T11:31:25.310Z,55.97
2023-02-05T11:36:28.188Z,55.98
2023-02-05T11:41:48.032Z,56.37
2023-02-05T11:46:56.774Z,56.23
2023-02-05T11:52:01.626Z,56.42
2023-02-05T11:57:27.654Z,56.12
2023-02-05T12:02:33.931Z,56.19
2023-02-05T12:07:41.219Z,56.23
2023-02-05T12:12:58.335Z,56.41
2023-02-05T12:18:15.399Z,56.53
2023-02-05T12:23:39.358Z,56.63
2023-02-05T12:28:55.316Z,56.54
2023-02-05T12:34:13.166Z,56.62
2023-02-05T12:39:30.793Z,56.62
2023-02-05T12:44:47.408Z,56.63
2023-02-05T12:50:12.384Z,56.87
2023-02-05T13:00:31.639Z,56.72
2023-02-05T13:05:38.130Z,56.91
2023-02-05T13:10:50.280Z,57.23
2023-02-05T13:16:02.448Z,57.17
2023-02-05T13:21:26.397Z,57.36
2023-02-05T13:26:51.144Z,57.63
2023-02-05T13:32:04.332Z,57.70
2023-02-05T13:37:31.666Z,57.88
2023-02-05T13:43:19.190Z,58.24
2023-02-05T13:49:11.768Z,58.25
2023-02-05T13:54:59.208Z,58.46
2023-02-05T14:00:03.680Z,58.57
2023-02-05T14:05:17.723Z,58.81
2023-02-05T14:10:30.328Z,58.51
2023-02-05T14:15:38.992Z,58.38
2023-02-05T14:20:45.615Z,58.43
2023-02-05T14:26:11.634Z,58.10
2023-02-05T14:31:49.660Z,58.55
2023-02-05T14:36:55.955Z,58.49
2023-02-05T14:42:00.669Z,58.27
2023-02-05T14:47:07.014Z,58.48
2023-02-05T14:52:26.201Z,58.52
2023-02-05T14:57:40.164Z,58.37
2023-02-05T15:03:23.092Z,58.34
2023-02-05T15:08:41.884Z,58.51
2023-02-05T15:14:24.354Z,58.41
2023-02-05T15:19:27.576Z,58.36
2023-02-05T15:24:36.848Z,58.37
2023-02-05T15:29:45.791Z,58.38
2023-02-05T15:34:53.572Z,58.26
2023-02-05T15:40:02.128Z,58.18
2023-02-05T15:45:18.141Z,57.75
2023-02-05T15:50:21.101Z,57.69
2023-02-05T15:55:27.752Z,57.72
2023-02-05T16:00:32.925Z,57.93
2023-02-05T16:05:37.331Z,58.02
2023-02-05T16:10:54.238Z,58.08
2023-02-05T16:16:02.218Z,58.35
2023-02-05T16:21:09.271Z,58.71
2023-02-05T16:26:21.374Z,58.82
2023-02-05T16:31:27.105Z,59.09
2023-02-05T16:36:33.373Z,59.16
2023-02-05T16:41:40.939Z,59.24
2023-02-05T16:46:44.130Z,59.21
2023-02-05T16:51:55.699Z,59.48
2023-02-05T16:57:04.979Z,59.56
2023-02-05T17:02:23.181Z,58.83
2023-02-05T17:07:26.294Z,58.92
2023-02-05T17:12:46.733Z,58.52
2023-02-05T17:17:51.820Z,58.01
2023-02-05T17:23:09.185Z,57.68
2023-02-05T17:28:17.485Z,57.10
2023-02-05T17:33:22.517Z,56.63
2023-02-05T17:38:25.427Z,56.32
2023-02-05T17:43:29.558Z,55.84
2023-02-05T17:48:32.345Z,55.48
2023-02-05T17:53:35.204Z,55.13
2023-02-05T17:58:39.329Z,55.08
2023-02-05T18:03:42.407Z,54.29
2023-02-05T18:08:45.156Z,53.72
2023-02-05T18:13:49.354Z,53.31
2023-02-05T18:18:52.153Z,52.44
2023-02-05T18:23:55.054Z,52.33
2023-02-05T18:28:59.200Z,50.99
2023-02-05T18:34:01.923Z,50.83
2023-02-05T18:39:05.056Z,50.88
2023-02-05T18:44:09.711Z,50.57
2023-02-05T18:49:12.489Z,51.31
2023-02-05T18:54:15.241Z,51.63
2023-02-05T18:59:21.098Z,51.84
2023-02-05T19:04:24.840Z,51.94
2023-02-05T19:09:28.900Z,52.02
2023-02-05T19:14:33.043Z,52.08
2023-02-05T19:19:35.861Z,51.83
2023-02-05T19:24:40.344Z,52.00
2023-02-05T19:29:44.768Z,52.37
2023-02-05T19:34:47.568Z,53.28
2023-02-05T19:39:50.346Z,53.66
2023-02-05T19:44:54.606Z,53.62
2023-02-05T19:49:57.689Z,53.89
2023-02-05T19:55:00.445Z,53.91
2023-02-05T20:00:05.491Z,54.19
2023-02-05T20:05:14.775Z,54.18
2023-02-05T20:10:17.707Z,54.31
2023-02-05T20:15:21.927Z,54.41
2023-02-05T20:20:33.226Z,54.36
2023-02-05T20:25:36.783Z,54.26
2023-02-05T20:31:00.301Z,54.44
2023-02-05T20:36:07.158Z,54.35
2023-02-05T20:41:13.955Z,54.44
2023-02-05T20:46:18.342Z,54.56
2023-02-05T20:51:23.180Z,54.41
2023-02-05T20:56:27.469Z,54.55
2023-02-05T21:01:33.130Z,54.31
2023-02-05T21:06:38.536Z,54.09
2023-02-05T21:11:41.563Z,54.38
2023-02-05T21:16:45.741Z,54.39
2023-02-05T21:21:49.800Z,54.38
2023-02-05T21:26:52.611Z,54.51
2023-02-05T21:31:56.864Z,53.65
2023-02-05T21:36:59.657Z,53.72
2023-02-05T21:42:02.531Z,54.47
2023-02-05T21:47:06.705Z,54.41
2023-02-05T21:52:09.770Z,54.42
2023-02-05T21:57:12.535Z,54.30
2023-02-05T22:02:16.816Z,54.38
2023-02-05T22:07:19.577Z,54.58
2023-02-05T22:12:22.664Z,54.56
2023-02-05T22:17:26.908Z,54.74
2023-02-05T22:22:29.680Z,54.73
2023-02-05T22:27:32.701Z,54.98
2023-02-05T22:32:36.839Z,55.02
2023-02-05T22:37:39.586Z,55.16
2023-02-05T22:42:42.419Z,55.47
2023-02-05T22:47:46.529Z,55.39
2023-02-05T22:52:49.266Z,55.69
2023-02-05T22:57:52.059Z,55.79
2023-02-05T23:02:57.328Z,55.86
2023-02-05T23:08:00.371Z,55.97
2023-02-05T23:13:03.194Z,56.03
2023-02-05T23:18:07.391Z,55.96
2023-02-05T23:23:10.139Z,56.00
2023-02-05T23:28:12.934Z,56.20
2023-02-05T23:33:17.816Z,55.97
2023-02-05T23:38:20.544Z,56.27
2023-02-05T23:43:24.046Z,56.15
2023-02-05T23:48:28.834Z,56.20
2023-02-05T23:53:31.645Z,56.38
2023-02-05T23:58:34.388Z,56.19
